sensor_id;sensor_type;location;lat;lon;timestamp;temperature;humidity
53272;DHT22;39160;48.580;7.756;2022-09-21T00:01:16;13.10;99.90
53272;DHT22;39160;48.580;7.756;2022-09-21T00:06:10;13.00;99.90
53272;DHT22;39160;48.580;7.756;2022-09-21T00:11:01;12.90;99.90
53272;DHT22;39160;48.580;7.756;2022-09-21T00:15:56;12.90;99.90
53272;DHT22;39160;48.580;7.756;2022-09-21T00:20:47;12.90;99.90
53272;DHT22;39160;48.580;7.756;2022-09-21T00:25:37;12.90;99.90
53272;DHT22;39160;48.580;7.756;2022-09-21T00:30:28;12.80;99.90
53272;DHT22;39160;48.580;7.756;2022-09-21T00:35:20;12.80;99.90
53272;DHT22;39160;48.580;7.756;2022-09-21T00:40:10;12.70;99.90
53272;DHT22;39160;48.580;7.756;2022-09-21T00:45:03;12.80;99.90
53272;DHT22;39160;48.580;7.756;2022-09-21T00:49:55;12.80;99.90
53272;DHT22;39160;48.580;7.756;2022-09-21T00:54:53;12.80;99.90
53272;DHT22;39160;48.580;7.756;2022-09-21T00:59:45;12.70;99.90
53272;DHT22;39160;48.580;7.756;2022-09-21T01:04:37;12.70;99.90
53272;DHT22;39160;48.580;7.756;2022-09-21T01:09:28;12.50;99.90
53272;DHT22;39160;48.580;7.756;2022-09-21T01:14:25;12.40;99.90
53272;DHT22;39160;48.580;7.756;2022-09-21T01:29:51;12.40;99.90
53272;DHT22;39160;48.580;7.756;2022-09-21T01:34:56;12.40;99.90
53272;DHT22;39160;48.580;7.756;2022-09-21T01:39:53;12.40;99.90
53272;DHT22;39160;48.580;7.756;2022-09-21T01:44:45;12.30;99.90
53272;DHT22;39160;48.580;7.756;2022-09-21T01:49:40;12.30;99.90
53272;DHT22;39160;48.580;7.756;2022-09-21T01:54:40;12.30;99.90
53272;DHT22;39160;48.580;7.756;2022-09-21T02:04:42;12.30;99.90
53272;DHT22;39160;48.580;7.756;2022-09-21T02:09:35;12.20;99.90
53272;DHT22;39160;48.580;7.756;2022-09-21T02:14:27;12.20;99.90
53272;DHT22;39160;48.580;7.756;2022-09-21T02:19:33;12.10;99.90
53272;DHT22;39160;48.580;7.756;2022-09-21T02:29:26;12.00;99.90
53272;DHT22;39160;48.580;7.756;2022-09-21T02:34:28;12.10;99.90
53272;DHT22;39160;48.580;7.756;2022-09-21T02:39:34;12.00;99.90
53272;DHT22;39160;48.580;7.756;2022-09-21T02:44:39;11.90;99.90
53272;DHT22;39160;48.580;7.756;2022-09-21T02:49:36;11.90;99.90
53272;DHT22;39160;48.580;7.756;2022-09-21T02:54:30;11.90;99.90
53272;DHT22;39160;48.580;7.756;2022-09-21T02:59:21;11.90;99.90
53272;DHT22;39160;48.580;7.756;2022-09-21T03:04:13;11.90;99.90
53272;DHT22;39160;48.580;7.756;2022-09-21T03:09:03;11.80;99.90
53272;DHT22;39160;48.580;7.756;2022-09-21T03:13:54;11.70;99.90
53272;DHT22;39160;48.580;7.756;2022-09-21T03:18:45;11.60;99.90
53272;DHT22;39160;48.580;7.756;2022-09-21T03:23:36;11.60;99.90
53272;DHT22;39160;48.580;7.756;2022-09-21T03:28:26;11.60;99.90
53272;DHT22;39160;48.580;7.756;2022-09-21T03:33:18;11.60;99.90
53272;DHT22;39160;48.580;7.756;2022-09-21T03:38:10;11.50;99.90
53272;DHT22;39160;48.580;7.756;2022-09-21T03:43:00;11.40;99.90
53272;DHT22;39160;48.580;7.756;2022-09-21T03:47:54;11.40;99.90
53272;DHT22;39160;48.580;7.756;2022-09-21T03:52:46;11.30;99.90
53272;DHT22;39160;48.580;7.756;2022-09-21T03:57:36;11.20;99.90
53272;DHT22;39160;48.580;7.756;2022-09-21T04:02:28;11.30;99.90
53272;DHT22;39160;48.580;7.756;2022-09-21T04:07:19;11.20;99.90
53272;DHT22;39160;48.580;7.756;2022-09-21T04:12:10;11.10;99.90
53272;DHT22;39160;48.580;7.756;2022-09-21T04:17:01;11.20;99.90
53272;DHT22;39160;48.580;7.756;2022-09-21T04:21:51;11.10;99.90
53272;DHT22;39160;48.580;7.756;2022-09-21T04:26:42;11.10;99.90
53272;DHT22;39160;48.580;7.756;2022-09-21T04:31:33;11.10;99.90
53272;DHT22;39160;48.580;7.756;2022-09-21T04:36:26;11.00;99.90
53272;DHT22;39160;48.580;7.756;2022-09-21T04:41:17;11.00;99.90
53272;DHT22;39160;48.580;7.756;2022-09-21T04:46:10;11.00;99.90
53272;DHT22;39160;48.580;7.756;2022-09-21T04:51:02;11.00;99.90
53272;DHT22;39160;48.580;7.756;2022-09-21T04:55:53;10.90;99.90
53272;DHT22;39160;48.580;7.756;2022-09-21T05:00:48;10.80;99.90
53272;DHT22;39160;48.580;7.756;2022-09-21T05:05:48;10.80;99.90
53272;DHT22;39160;48.580;7.756;2022-09-21T05:10:39;10.80;99.90
53272;DHT22;39160;48.580;7.756;2022-09-21T05:15:30;10.70;99.90
53272;DHT22;39160;48.580;7.756;2022-09-21T05:20:20;10.60;99.90
53272;DHT22;39160;48.580;7.756;2022-09-21T05:25:11;10.60;99.90
53272;DHT22;39160;48.580;7.756;2022-09-21T05:30:02;10.60;99.90
53272;DHT22;39160;48.580;7.756;2022-09-21T05:35:09;10.70;99.90
53272;DHT22;39160;48.580;7.756;2022-09-21T05:40:02;10.70;99.90
53272;DHT22;39160;48.580;7.756;2022-09-21T05:44:52;10.60;99.90
53272;DHT22;39160;48.580;7.756;2022-09-21T06:00:14;10.70;99.90
53272;DHT22;39160;48.580;7.756;2022-09-21T06:05:10;10.90;99.90
53272;DHT22;39160;48.580;7.756;2022-09-21T06:10:01;10.70;99.90
53272;DHT22;39160;48.580;7.756;2022-09-21T06:14:51;10.70;99.90
53272;DHT22;39160;48.580;7.756;2022-09-21T06:19:42;10.60;99.90
53272;DHT22;39160;48.580;7.756;2022-09-21T06:24:33;10.60;99.90
53272;DHT22;39160;48.580;7.756;2022-09-21T06:29:23;10.70;99.90
53272;DHT22;39160;48.580;7.756;2022-09-21T06:34:14;10.80;99.90
53272;DHT22;39160;48.580;7.756;2022-09-21T06:39:04;10.90;99.90
53272;DHT22;39160;48.580;7.756;2022-09-21T06:43:55;10.90;99.90
53272;DHT22;39160;48.580;7.756;2022-09-21T06:48:46;10.80;99.90
53272;DHT22;39160;48.580;7.756;2022-09-21T06:53:37;10.80;99.90
53272;DHT22;39160;48.580;7.756;2022-09-21T06:58:29;10.90;99.90
53272;DHT22;39160;48.580;7.756;2022-09-21T07:03:19;11.00;99.90
53272;DHT22;39160;48.580;7.756;2022-09-21T07:08:10;11.00;99.90
53272;DHT22;39160;48.580;7.756;2022-09-21T07:13:02;11.10;99.90
53272;DHT22;39160;48.580;7.756;2022-09-21T07:17:53;11.30;99.90
53272;DHT22;39160;48.580;7.756;2022-09-21T07:22:43;11.40;99.90
53272;DHT22;39160;48.580;7.756;2022-09-21T07:27:34;11.50;99.90
53272;DHT22;39160;48.580;7.756;2022-09-21T07:32:24;11.60;99.90
53272;DHT22;39160;48.580;7.756;2022-09-21T07:37:15;11.70;99.90
53272;DHT22;39160;48.580;7.756;2022-09-21T07:42:06;11.80;99.90
53272;DHT22;39160;48.580;7.756;2022-09-21T07:46:57;11.90;99.90
53272;DHT22;39160;48.580;7.756;2022-09-21T07:51:48;12.00;99.90
53272;DHT22;39160;48.580;7.756;2022-09-21T07:56:39;12.10;99.90
53272;DHT22;39160;48.580;7.756;2022-09-21T08:01:30;12.10;99.90
53272;DHT22;39160;48.580;7.756;2022-09-21T08:06:22;12.20;99.90
53272;DHT22;39160;48.580;7.756;2022-09-21T08:11:15;12.30;99.90
53272;DHT22;39160;48.580;7.756;2022-09-21T08:16:06;12.30;99.90
53272;DHT22;39160;48.580;7.756;2022-09-21T08:20:59;12.50;99.90
53272;DHT22;39160;48.580;7.756;2022-09-21T08:25:49;12.50;99.90
53272;DHT22;39160;48.580;7.756;2022-09-21T08:30:40;12.70;99.90
53272;DHT22;39160;48.580;7.756;2022-09-21T08:35:31;12.70;99.90
53272;DHT22;39160;48.580;7.756;2022-09-21T08:40:23;13.00;99.90
53272;DHT22;39160;48.580;7.756;2022-09-21T08:45:16;13.10;99.90
53272;DHT22;39160;48.580;7.756;2022-09-21T08:55:23;13.30;99.90
53272;DHT22;39160;48.580;7.756;2022-09-21T09:00:16;13.50;99.90
53272;DHT22;39160;48.580;7.756;2022-09-21T09:15:51;13.90;99.90
53272;DHT22;39160;48.580;7.756;2022-09-21T09:20:45;14.10;99.90
53272;DHT22;39160;48.580;7.756;2022-09-21T09:25:42;14.40;99.90
53272;DHT22;39160;48.580;7.756;2022-09-21T09:30:34;14.50;99.90
53272;DHT22;39160;48.580;7.756;2022-09-21T09:35:33;14.60;99.90
53272;DHT22;39160;48.580;7.756;2022-09-21T09:50:54;14.80;99.90
53272;DHT22;39160;48.580;7.756;2022-09-21T09:55:50;14.90;99.90
53272;DHT22;39160;48.580;7.756;2022-09-21T10:00:41;15.20;99.90
53272;DHT22;39160;48.580;7.756;2022-09-21T10:05:36;15.40;99.90
53272;DHT22;39160;48.580;7.756;2022-09-21T10:10:32;15.40;99.90
53272;DHT22;39160;48.580;7.756;2022-09-21T10:15:23;15.50;99.90
53272;DHT22;39160;48.580;7.756;2022-09-21T10:20:16;15.60;99.90
53272;DHT22;39160;48.580;7.756;2022-09-21T10:25:17;15.80;99.90
53272;DHT22;39160;48.580;7.756;2022-09-21T10:35:19;15.80;99.70
53272;DHT22;39160;48.580;7.756;2022-09-21T10:55:20;16.00;99.10
53272;DHT22;39160;48.580;7.756;2022-09-21T11:00:32;16.20;99.00
53272;DHT22;39160;48.580;7.756;2022-09-21T11:05:31;16.30;98.60
53272;DHT22;39160;48.580;7.756;2022-09-21T11:36:12;16.70;97.80
53272;DHT22;39160;48.580;7.756;2022-09-21T11:46:25;16.90;97.70
53272;DHT22;39160;48.580;7.756;2022-09-21T12:02:27;17.30;97.00
53272;DHT22;39160;48.580;7.756;2022-09-21T12:12:53;17.60;96.50
53272;DHT22;39160;48.580;7.756;2022-09-21T12:18:08;17.80;96.30
53272;DHT22;39160;48.580;7.756;2022-09-21T12:23:25;17.80;96.10
53272;DHT22;39160;48.580;7.756;2022-09-21T12:28:35;17.90;95.80
53272;DHT22;39160;48.580;7.756;2022-09-21T12:33:49;18.20;95.70
53272;DHT22;39160;48.580;7.756;2022-09-21T12:38:50;18.90;95.50
53272;DHT22;39160;48.580;7.756;2022-09-21T12:44:03;19.20;95.70
53272;DHT22;39160;48.580;7.756;2022-09-21T12:48:54;19.50;95.00
53272;DHT22;39160;48.580;7.756;2022-09-21T12:53:46;19.50;94.80
53272;DHT22;39160;48.580;7.756;2022-09-21T12:58:42;19.80;95.20
53272;DHT22;39160;48.580;7.756;2022-09-21T13:09:13;20.50;93.80
53272;DHT22;39160;48.580;7.756;2022-09-21T13:14:05;20.90;94.70
53272;DHT22;39160;48.580;7.756;2022-09-21T13:19:15;21.10;94.60
53272;DHT22;39160;48.580;7.756;2022-09-21T13:24:26;21.70;94.00
53272;DHT22;39160;48.580;7.756;2022-09-21T13:39:15;23.50;91.20
53272;DHT22;39160;48.580;7.756;2022-09-21T13:44:37;24.00;90.20
53272;DHT22;39160;48.580;7.756;2022-09-21T13:49:40;24.30;85.20
53272;DHT22;39160;48.580;7.756;2022-09-21T13:54:49;25.10;83.00
53272;DHT22;39160;48.580;7.756;2022-09-21T13:59:43;24.60;77.00
53272;DHT22;39160;48.580;7.756;2022-09-21T14:04:34;24.70;78.00
53272;DHT22;39160;48.580;7.756;2022-09-21T14:09:28;24.50;75.70
53272;DHT22;39160;48.580;7.756;2022-09-21T14:14:38;24.70;72.70
53272;DHT22;39160;48.580;7.756;2022-09-21T14:24:39;25.20;73.60
53272;DHT22;39160;48.580;7.756;2022-09-21T14:34:35;24.80;69.60
53272;DHT22;39160;48.580;7.756;2022-09-21T14:39:36;25.20;67.80
53272;DHT22;39160;48.580;7.756;2022-09-21T14:44:29;25.40;65.60
53272;DHT22;39160;48.580;7.756;2022-09-21T14:55:15;27.00;63.70
53272;DHT22;39160;48.580;7.756;2022-09-21T15:00:19;28.20;60.20
53272;DHT22;39160;48.580;7.756;2022-09-21T15:05:32;28.80;57.60
53272;DHT22;39160;48.580;7.756;2022-09-21T15:15:41;30.10;54.60
53272;DHT22;39160;48.580;7.756;2022-09-21T15:20:35;30.30;53.80
53272;DHT22;39160;48.580;7.756;2022-09-21T15:25:32;30.70;52.90
53272;DHT22;39160;48.580;7.756;2022-09-21T15:30:25;30.80;51.50
53272;DHT22;39160;48.580;7.756;2022-09-21T15:40:18;29.60;50.40
53272;DHT22;39160;48.580;7.756;2022-09-21T15:45:15;30.00;49.60
53272;DHT22;39160;48.580;7.756;2022-09-21T15:50:12;30.20;49.30
53272;DHT22;39160;48.580;7.756;2022-09-21T15:55:17;30.90;48.40
53272;DHT22;39160;48.580;7.756;2022-09-21T16:05:10;31.40;47.50
53272;DHT22;39160;48.580;7.756;2022-09-21T16:10:33;30.90;47.40
53272;DHT22;39160;48.580;7.756;2022-09-21T16:15:27;29.80;47.30
53272;DHT22;39160;48.580;7.756;2022-09-21T16:20:20;28.30;47.70
53272;DHT22;39160;48.580;7.756;2022-09-21T16:25:30;23.90;51.80
53272;DHT22;39160;48.580;7.756;2022-09-21T16:35:37;21.30;55.30
53272;DHT22;39160;48.580;7.756;2022-09-21T16:40:30;21.20;55.40
53272;DHT22;39160;48.580;7.756;2022-09-21T16:45:25;21.30;55.90
53272;DHT22;39160;48.580;7.756;2022-09-21T16:50:17;21.20;56.30
53272;DHT22;39160;48.580;7.756;2022-09-21T16:55:09;20.60;57.40
53272;DHT22;39160;48.580;7.756;2022-09-21T17:00:00;20.10;58.50
53272;DHT22;39160;48.580;7.756;2022-09-21T17:04:51;19.80;59.00
53272;DHT22;39160;48.580;7.756;2022-09-21T17:09:43;19.40;60.20
53272;DHT22;39160;48.580;7.756;2022-09-21T17:14:37;19.20;61.20
53272;DHT22;39160;48.580;7.756;2022-09-21T17:19:29;19.00;61.90
53272;DHT22;39160;48.580;7.756;2022-09-21T17:24:20;18.90;62.20
53272;DHT22;39160;48.580;7.756;2022-09-21T17:29:22;18.70;63.10
53272;DHT22;39160;48.580;7.756;2022-09-21T17:34:16;18.60;63.60
53272;DHT22;39160;48.580;7.756;2022-09-21T17:39:06;18.50;64.20
53272;DHT22;39160;48.580;7.756;2022-09-21T17:48:58;18.30;65.10
53272;DHT22;39160;48.580;7.756;2022-09-21T17:53:49;18.20;65.40
53272;DHT22;39160;48.580;7.756;2022-09-21T17:59:02;18.10;66.00
53272;DHT22;39160;48.580;7.756;2022-09-21T18:03:54;18.00;66.80
53272;DHT22;39160;48.580;7.756;2022-09-21T18:08:45;17.90;67.00
53272;DHT22;39160;48.580;7.756;2022-09-21T18:14:16;17.80;67.50
53272;DHT22;39160;48.580;7.756;2022-09-21T18:24:34;17.70;68.50
53272;DHT22;39160;48.580;7.756;2022-09-21T18:29:29;17.60;68.90
53272;DHT22;39160;48.580;7.756;2022-09-21T18:54:23;17.30;70.80
53272;DHT22;39160;48.580;7.756;2022-09-21T18:59:15;17.10;71.20
53272;DHT22;39160;48.580;7.756;2022-09-21T19:04:07;17.00;71.50
53272;DHT22;39160;48.580;7.756;2022-09-21T19:10:01;17.00;71.70
53272;DHT22;39160;48.580;7.756;2022-09-21T19:24:44;16.70;73.00
53272;DHT22;39160;48.580;7.756;2022-09-21T19:34:44;16.80;73.70
53272;DHT22;39160;48.580;7.756;2022-09-21T19:39:35;16.60;74.10
53272;DHT22;39160;48.580;7.756;2022-09-21T19:44:46;16.50;74.30
53272;DHT22;39160;48.580;7.756;2022-09-21T19:49:48;16.40;75.00
53272;DHT22;39160;48.580;7.756;2022-09-21T19:54:39;16.40;75.60
53272;DHT22;39160;48.580;7.756;2022-09-21T19:59:49;16.40;75.90
53272;DHT22;39160;48.580;7.756;2022-09-21T20:04:55;16.30;76.80
53272;DHT22;39160;48.580;7.756;2022-09-21T20:10:14;16.20;77.60
53272;DHT22;39160;48.580;7.756;2022-09-21T20:15:18;16.20;78.20
53272;DHT22;39160;48.580;7.756;2022-09-21T20:20:25;16.10;78.70
53272;DHT22;39160;48.580;7.756;2022-09-21T20:25:29;16.10;79.30
53272;DHT22;39160;48.580;7.756;2022-09-21T20:30:24;15.90;80.00
53272;DHT22;39160;48.580;7.756;2022-09-21T20:35:23;15.90;80.30
53272;DHT22;39160;48.580;7.756;2022-09-21T20:40:14;15.80;81.30
53272;DHT22;39160;48.580;7.756;2022-09-21T20:45:07;15.90;81.30
53272;DHT22;39160;48.580;7.756;2022-09-21T20:49:58;15.80;81.50
53272;DHT22;39160;48.580;7.756;2022-09-21T20:54:48;15.80;81.80
53272;DHT22;39160;48.580;7.756;2022-09-21T20:59:39;15.70;82.50
53272;DHT22;39160;48.580;7.756;2022-09-21T21:04:30;15.60;82.80
53272;DHT22;39160;48.580;7.756;2022-09-21T21:09:21;15.50;83.80
53272;DHT22;39160;48.580;7.756;2022-09-21T21:14:13;15.30;85.00
53272;DHT22;39160;48.580;7.756;2022-09-21T21:19:04;15.30;85.60
53272;DHT22;39160;48.580;7.756;2022-09-21T21:23:55;15.30;85.80
53272;DHT22;39160;48.580;7.756;2022-09-21T21:29:04;15.30;86.50
53272;DHT22;39160;48.580;7.756;2022-09-21T21:33:55;15.10;87.30
53272;DHT22;39160;48.580;7.756;2022-09-21T21:38:45;15.20;87.50
53272;DHT22;39160;48.580;7.756;2022-09-21T21:43:36;15.10;88.20
53272;DHT22;39160;48.580;7.756;2022-09-21T21:48:27;15.10;88.70
53272;DHT22;39160;48.580;7.756;2022-09-21T21:53:17;15.00;89.20
53272;DHT22;39160;48.580;7.756;2022-09-21T21:58:08;14.80;90.00
53272;DHT22;39160;48.580;7.756;2022-09-21T22:02:59;14.70;90.40
53272;DHT22;39160;48.580;7.756;2022-09-21T22:07:49;14.70;90.70
53272;DHT22;39160;48.580;7.756;2022-09-21T22:12:40;14.60;91.10
53272;DHT22;39160;48.580;7.756;2022-09-21T22:17:32;14.50;91.60
53272;DHT22;39160;48.580;7.756;2022-09-21T22:22:23;14.40;92.10
53272;DHT22;39160;48.580;7.756;2022-09-21T22:27:13;14.30;92.60
53272;DHT22;39160;48.580;7.756;2022-09-21T22:32:04;14.20;93.10
53272;DHT22;39160;48.580;7.756;2022-09-21T22:36:57;14.20;93.40
53272;DHT22;39160;48.580;7.756;2022-09-21T22:41:48;14.20;93.50
53272;DHT22;39160;48.580;7.756;2022-09-21T22:46:39;14.10;93.70
53272;DHT22;39160;48.580;7.756;2022-09-21T22:51:30;13.90;94.40
53272;DHT22;39160;48.580;7.756;2022-09-21T22:56:23;13.90;94.60
53272;DHT22;39160;48.580;7.756;2022-09-21T23:01:16;13.80;94.80
53272;DHT22;39160;48.580;7.756;2022-09-21T23:06:09;13.80;95.20
53272;DHT22;39160;48.580;7.756;2022-09-21T23:11:15;13.70;95.50
53272;DHT22;39160;48.580;7.756;2022-09-21T23:16:09;13.70;95.70
53272;DHT22;39160;48.580;7.756;2022-09-21T23:21:02;13.60;95.80
53272;DHT22;39160;48.580;7.756;2022-09-21T23:26:04;13.60;96.10
53272;DHT22;39160;48.580;7.756;2022-09-21T23:30:59;13.50;96.50
53272;DHT22;39160;48.580;7.756;2022-09-21T23:35:50;13.40;96.60
53272;DHT22;39160;48.580;7.756;2022-09-21T23:40:41;13.30;97.00
53272;DHT22;39160;48.580;7.756;2022-09-21T23:45:32;13.30;97.10
53272;DHT22;39160;48.580;7.756;2022-09-21T23:50:22;13.30;97.20
53272;DHT22;39160;48.580;7.756;2022-09-21T23:55:13;13.30;97.30
